Time;durP1;ratioP1;P1;durP2;ratioP2;P2;SDS_P1;SDS_P2;PMS_P1;PMS_P2;Temp;Humidity;BMP_temperature;BMP_pressure;BME280_temperature;BME280_humidity;BME280_pressure;Samples;Min_cycle;Max_cycle;Signal;HPM_P1;HPM_P2
2023/11/17 00:00:25;;;;;;;0.08;0.08;;;;;;;12.55;59.88;98926.00;5305903;26;20072;-88
2023/11/17 00:02:51;;;;;;;0.50;0.43;;;;;;;12.43;59.86;98932.72;5323377;26;34967;-89
2023/11/17 00:05:16;;;;;;;0.82;0.45;;;;;;;12.52;59.88;98918.31;5323516;26;33226;-88
2023/11/17 00:07:42;;;;;;;0.30;0.30;;;;;;;12.63;59.88;98920.38;5324986;26;20090;-89
2023/11/17 00:10:08;;;;;;;8.25;0.73;;;;;;;12.45;59.87;98922.19;5324787;26;20052;-88
2023/11/17 00:12:33;;;;;;;0.00;0.00;;;;;;;12.54;59.88;98911.28;5324468;26;20295;-87
2023/11/17 00:14:59;;;;;;;0.25;0.25;;;;;;;12.49;59.87;98908.03;5322665;26;32618;-87
2023/11/17 00:17:24;;;;;;;0.25;0.25;;;;;;;12.44;59.88;98917.88;5306094;26;20084;-88
2023/11/17 00:19:51;;;;;;;0.32;0.30;;;;;;;12.37;59.87;98917.38;5306030;26;20063;-87
2023/11/17 00:22:17;;;;;;;2.20;1.40;;;;;;;12.45;59.87;98909.13;5306079;26;20063;-88
2023/11/17 00:24:43;;;;;;;0.20;0.20;;;;;;;12.37;59.86;98911.31;5325198;26;20077;-86
2023/11/17 00:27:09;;;;;;;0.10;0.10;;;;;;;12.40;59.86;98908.53;5306293;26;20330;-88
2023/11/17 00:29:37;;;;;;;0.28;0.28;;;;;;;12.46;59.87;98902.97;5306014;26;20052;-88
2023/11/17 00:32:03;;;;;;;0.10;0.10;;;;;;;12.41;59.87;98903.22;5306470;26;20141;-89
2023/11/17 00:34:28;;;;;;;0.03;0.03;;;;;;;12.28;59.85;98899.56;5306860;26;20080;-88
2023/11/17 00:36:54;;;;;;;0.62;0.55;;;;;;;12.34;59.86;98901.03;5325233;26;20052;-88
2023/11/17 00:39:21;;;;;;;0.15;0.15;;;;;;;12.20;59.86;98894.75;5324943;26;20060;-87
2023/11/17 00:41:46;;;;;;;0.15;0.15;;;;;;;12.39;59.87;98894.66;5306977;26;20048;-88
2023/11/17 00:44:13;;;;;;;0.30;0.30;;;;;;;12.32;59.86;98892.44;5344886;26;20098;-87
2023/11/17 00:46:38;;;;;;;0.10;0.10;;;;;;;12.47;59.87;98881.19;5324911;26;20071;-86
2023/11/17 00:49:04;;;;;;;1.45;0.32;;;;;;;12.34;59.86;98878.41;5306653;26;20083;-88
2023/11/17 00:51:30;;;;;;;0.00;0.00;;;;;;;12.50;59.88;98874.03;5324985;26;20117;-88
2023/11/17 00:54:00;;;;;;;0.62;0.62;;;;;;;12.40;59.86;98872.84;5324967;26;20103;-88
2023/11/17 00:56:26;;;;;;;0.00;0.00;;;;;;;12.43;59.86;98867.44;5344934;26;20763;-87
2023/11/17 00:58:52;;;;;;;0.62;0.62;;;;;;;12.40;59.86;98872.00;5306790;26;20772;-88
2023/11/17 01:01:17;;;;;;;0.52;0.52;;;;;;;12.41;59.86;98864.09;5306748;26;20075;-89
2023/11/17 01:03:45;;;;;;;5.45;0.70;;;;;;;12.45;59.87;98868.22;5325545;26;20068;-86
2023/11/17 01:06:10;;;;;;;0.90;0.62;;;;;;;12.34;59.86;98861.91;5306799;26;20126;-87
2023/11/17 01:08:36;;;;;;;0.10;0.10;;;;;;;12.27;59.85;98856.97;5305340;26;29108;-87
2023/11/17 01:11:02;;;;;;;0.32;0.32;;;;;;;12.44;59.87;98850.87;5305398;26;35266;-87
2023/11/17 01:13:27;;;;;;;1.25;0.65;;;;;;;12.29;59.87;98852.53;5306154;26;20098;-86
2023/11/17 01:15:53;;;;;;;0.00;0.00;;;;;;;12.20;59.86;98845.19;5324834;26;20090;-87
2023/11/17 01:18:18;;;;;;;0.25;0.25;;;;;;;12.28;59.85;98847.38;5324845;26;20171;-88
2023/11/17 01:20:44;;;;;;;0.65;0.65;;;;;;;12.30;59.86;98837.72;5324724;26;20041;-88
2023/11/17 01:23:10;;;;;;;1.00;0.85;;;;;;;12.22;59.86;98838.12;5306438;26;20159;-87
2023/11/17 01:25:36;;;;;;;0.85;0.37;;;;;;;12.14;59.86;98836.84;5323887;26;20052;-88
2023/11/17 01:28:02;;;;;;;0.00;0.00;;;;;;;12.25;59.85;98830.13;5325257;26;20074;-87
2023/11/17 01:30:29;;;;;;;0.00;0.00;;;;;;;12.26;59.85;98825.75;5306615;26;20053;-87
2023/11/17 01:32:55;;;;;;;0.50;0.50;;;;;;;12.44;59.87;98808.25;5288450;26;20064;-87
2023/11/17 01:35:20;;;;;;;0.82;0.68;;;;;;;12.39;59.86;98811.13;5344382;26;20420;-88
2023/11/17 01:37:46;;;;;;;0.08;0.08;;;;;;;12.36;59.87;98807.84;5324879;26;20052;-88
2023/11/17 01:40:11;;;;;;;0.80;0.65;;;;;;;12.27;59.85;98809.16;5306765;26;20331;-88
2023/11/17 01:42:37;;;;;;;0.00;0.00;;;;;;;12.27;59.86;98807.41;5307017;26;20325;-88
2023/11/17 01:45:07;;;;;;;0.25;0.25;;;;;;;12.34;59.86;98800.09;5324351;26;25274;-87
2023/11/17 01:47:37;;;;;;;0.03;0.03;;;;;;;12.27;59.85;98802.19;5326296;26;20068;-88
2023/11/17 01:50:02;;;;;;;0.28;0.28;;;;;;;12.28;59.85;98787.38;5325397;26;20406;-88
2023/11/17 01:52:28;;;;;;;4.82;1.08;;;;;;;12.33;59.86;98780.16;5325101;26;20067;-88
2023/11/17 01:54:53;;;;;;;0.30;0.20;;;;;;;12.21;59.86;98786.03;5323883;26;29675;-88
2023/11/17 01:57:19;;;;;;;0.60;0.32;;;;;;;12.08;59.85;98783.25;5323950;26;28158;-88
2023/11/17 01:59:44;;;;;;;0.93;0.85;;;;;;;12.13;59.84;98780.38;5306537;26;20064;-88
2023/11/17 02:02:10;;;;;;;0.98;0.90;;;;;;;12.24;59.86;98783.25;5306229;26;32632;-88
2023/11/17 02:04:35;;;;;;;1.77;0.80;;;;;;;12.11;59.85;98782.25;5306660;26;20091;-89
2023/11/17 02:07:12;;;;;;;0.20;0.20;;;;;;;12.14;59.85;98769.88;5325302;26;20485;-88
2023/11/17 02:09:50;;;;;;;0.43;0.43;;;;;;;12.11;59.85;98771.81;5324638;26;20040;-87
2023/11/17 02:12:46;;;;;;;0.93;0.60;;;;;;;11.98;59.85;98772.44;5307936;26;20053;-87
2023/11/17 02:15:14;;;;;;;0.00;0.00;;;;;;;11.97;59.84;98760.34;5310048;26;20061;-88
2023/11/17 02:17:42;;;;;;;0.30;0.28;;;;;;;11.95;59.84;98764.78;5324768;26;20061;-87
2023/11/17 02:20:11;;;;;;;0.00;0.00;;;;;;;12.02;59.84;98759.25;5306090;26;20045;-87
2023/11/17 02:22:45;;;;;;;0.43;0.43;;;;;;;12.07;59.85;98760.69;5288437;26;20064;-87
2023/11/17 02:25:19;;;;;;;0.45;0.43;;;;;;;12.06;59.85;98753.78;5306694;26;20060;-87
2023/11/17 02:27:50;;;;;;;0.05;0.05;;;;;;;12.15;59.86;98744.63;5324221;26;20049;-88
2023/11/17 02:30:19;;;;;;;1.77;0.95;;;;;;;12.16;59.85;98739.31;5324114;26;20058;-88
2023/11/17 02:32:50;;;;;;;0.32;0.32;;;;;;;11.96;59.84;98737.78;5306007;26;20314;-88
2023/11/17 02:35:16;;;;;;;0.00;0.00;;;;;;;11.92;59.85;98735.44;5324643;26;20417;-87
2023/11/17 02:37:42;;;;;;;0.00;0.00;;;;;;;11.93;59.84;98730.13;5323694;26;20105;-88
2023/11/17 02:40:18;;;;;;;0.85;0.65;;;;;;;11.93;59.84;98729.28;5287255;26;20040;-88
2023/11/17 02:42:47;;;;;;;0.32;0.32;;;;;;;11.91;59.84;98724.16;5309215;26;20057;-87
2023/11/17 02:45:19;;;;;;;1.67;1.55;;;;;;;11.97;59.84;98713.37;5306470;26;20121;-87
2023/11/17 02:47:46;;;;;;;0.00;0.00;;;;;;;11.98;59.85;98715.06;5306129;26;20068;-87
2023/11/17 02:50:18;;;;;;;0.28;0.15;;;;;;;11.87;59.83;98720.03;5324315;26;20056;-87
2023/11/17 02:53:10;;;;;;;0.00;0.00;;;;;;;11.77;59.83;98716.19;5325402;26;20061;-87
2023/11/17 02:55:35;;;;;;;0.15;0.10;;;;;;;11.93;59.84;98711.88;5309922;26;20052;-87
2023/11/17 02:58:01;;;;;;;0.45;0.45;;;;;;;11.81;59.83;98709.91;5323746;26;26429;-88
2023/11/17 03:00:27;;;;;;;0.00;0.00;;;;;;;11.82;59.83;98702.94;5306122;26;20083;-87
2023/11/17 03:02:53;;;;;;;1.75;1.65;;;;;;;11.63;59.82;98706.50;5324807;26;20517;-87
2023/11/17 03:05:18;;;;;;;0.17;0.17;;;;;;;11.65;59.82;98702.06;5324514;26;20052;-86
2023/11/17 03:07:48;;;;;;;1.83;0.28;;;;;;;11.64;59.82;98702.97;5323560;26;28761;-88
2023/11/17 03:10:13;;;;;;;0.00;0.00;;;;;;;11.74;59.83;98699.88;5306184;26;20059;-87
2023/11/17 03:12:39;;;;;;;1.08;1.08;;;;;;;11.72;59.83;98697.34;5305347;26;27918;-87
2023/11/17 03:15:09;;;;;;;0.47;0.40;;;;;;;11.70;59.83;98696.59;5324488;26;20112;-88
2023/11/17 03:17:38;;;;;;;4.28;1.10;;;;;;;11.90;59.84;98696.41;5344284;26;20103;-87
2023/11/17 03:20:14;;;;;;;0.00;0.00;;;;;;;11.89;59.83;98688.66;5343859;26;20393;-86
2023/11/17 03:23:00;;;;;;;0.37;0.37;;;;;;;11.80;59.83;98678.72;5307703;26;20060;-87
2023/11/17 03:25:26;;;;;;;0.30;0.30;;;;;;;11.80;59.83;98673.50;5327904;26;20099;-88
2023/11/17 03:27:52;;;;;;;0.40;0.20;;;;;;;11.94;59.84;98665.78;5305836;26;20078;-87
2023/11/17 03:30:18;;;;;;;0.40;0.40;;;;;;;11.88;59.83;98661.75;5344744;26;20044;-88
2023/11/17 03:32:46;;;;;;;0.32;0.32;;;;;;;11.88;59.83;98658.31;5324202;26;20109;-87
2023/11/17 03:35:13;;;;;;;0.00;0.00;;;;;;;11.77;59.83;98663.22;5286657;26;20413;-87
2023/11/17 03:37:39;;;;;;;0.32;0.32;;;;;;;11.63;59.82;98667.41;5343900;26;20115;-86
2023/11/17 03:40:11;;;;;;;3.12;0.68;;;;;;;11.78;59.84;98650.13;5324027;26;20087;-87
2023/11/17 03:42:36;;;;;;;1.25;1.23;;;;;;;11.76;59.83;98649.31;5306127;26;20060;-86
2023/11/17 03:45:08;;;;;;;0.20;0.20;;;;;;;11.81;59.83;98638.69;5305718;26;20078;-86
2023/11/17 03:47:36;;;;;;;0.73;0.73;;;;;;;11.84;59.84;98636.78;5306498;26;20438;-88
2023/11/17 03:50:03;;;;;;;0.55;0.52;;;;;;;11.69;59.83;98622.75;5287476;26;20071;-87
2023/11/17 03:52:31;;;;;;;0.00;0.00;;;;;;;11.73;59.83;98625.19;5287809;26;20086;-87
2023/11/17 03:54:59;;;;;;;0.80;0.73;;;;;;;11.69;59.83;98625.38;5324084;26;20029;-88
2023/11/17 03:57:25;;;;;;;1.87;1.27;;;;;;;11.67;59.82;98623.78;5323683;26;20068;-87
2023/11/17 03:59:53;;;;;;;1.48;1.23;;;;;;;11.52;59.81;98624.59;5325181;26;20055;-87
2023/11/17 04:02:22;;;;;;;0.73;0.52;;;;;;;11.43;59.81;98628.53;5325795;26;20060;-87
2023/11/17 04:04:51;;;;;;;0.00;0.00;;;;;;;11.30;59.80;98627.50;5325559;26;20060;-87
2023/11/17 04:07:16;;;;;;;3.10;1.08;;;;;;;11.44;59.81;98627.63;5345247;26;20052;-87
2023/11/17 04:09:43;;;;;;;1.08;0.47;;;;;;;11.39;59.81;98629.63;5324320;26;32701;-88
2023/11/17 04:12:09;;;;;;;0.52;0.47;;;;;;;11.37;59.80;98628.87;5324939;26;20090;-88
2023/11/17 04:14:38;;;;;;;0.60;0.60;;;;;;;11.27;59.80;98625.91;5325040;26;20064;-86
2023/11/17 04:17:04;;;;;;;1.23;0.95;;;;;;;11.24;59.80;98626.06;5306295;26;20056;-87
2023/11/17 04:19:30;;;;;;;0.85;0.68;;;;;;;11.12;59.79;98628.44;5344661;26;20045;-87
2023/11/17 04:21:56;;;;;;;1.05;0.62;;;;;;;10.99;59.79;98631.69;5305841;26;32611;-87
2023/11/17 04:24:22;;;;;;;2.40;1.12;;;;;;;11.07;59.80;98626.94;5324745;26;20121;-87
2023/11/17 04:26:48;;;;;;;2.75;0.85;;;;;;;10.82;59.77;98630.88;5323643;26;33078;-87
2023/11/17 04:29:14;;;;;;;0.00;0.00;;;;;;;10.85;59.77;98622.91;5306289;26;20061;-87
2023/11/17 04:31:39;;;;;;;0.57;0.55;;;;;;;10.81;59.78;98627.44;5324551;26;20492;-87
2023/11/17 04:34:05;;;;;;;0.57;0.57;;;;;;;10.81;59.78;98619.63;5306197;26;20125;-87
2023/11/17 04:36:32;;;;;;;0.90;0.90;;;;;;;10.70;59.78;98629.75;5306349;26;20119;-85
2023/11/17 04:38:58;;;;;;;0.40;0.40;;;;;;;10.72;59.77;98635.72;5306648;26;20074;-86
2023/11/17 04:41:24;;;;;;;1.17;0.85;;;;;;;10.67;59.77;98633.34;5324632;26;20095;-87
2023/11/17 04:43:49;;;;;;;0.98;0.98;;;;;;;10.64;59.77;98632.62;5305777;26;20095;-87
2023/11/17 04:46:19;;;;;;;0.30;0.30;;;;;;;10.65;59.77;98624.78;5324640;26;20435;-87
2023/11/17 04:48:44;;;;;;;31.08;1.85;;;;;;;10.66;59.76;98630.81;5324222;26;20462;-86
2023/11/17 04:51:09;;;;;;;0.00;0.00;;;;;;;10.62;59.76;98630.09;5323822;26;28186;-87
2023/11/17 04:53:35;;;;;;;0.55;0.30;;;;;;;10.67;59.77;98633.34;5323678;26;32158;-87
2023/11/17 04:56:04;;;;;;;1.20;0.85;;;;;;;10.61;59.76;98636.22;5324506;26;20527;-87
2023/11/17 04:58:29;;;;;;;0.15;0.15;;;;;;;10.76;59.77;98622.47;5324287;26;20063;-87
2023/11/17 05:00:54;;;;;;;0.93;0.65;;;;;;;10.75;59.77;98630.34;5323437;26;31244;-87
2023/11/17 05:03:20;;;;;;;3.12;1.75;;;;;;;10.67;59.77;98622.09;5305069;26;35493;-87
2023/11/17 05:05:48;;;;;;;0.15;0.15;;;;;;;10.62;59.76;98618.84;5324326;26;20068;-87
2023/11/17 05:08:16;;;;;;;0.30;0.30;;;;;;;10.72;59.77;98617.50;5306563;26;20052;-87
2023/11/17 05:10:42;;;;;;;0.00;0.00;;;;;;;10.76;59.77;98626.81;5325218;26;20071;-86
2023/11/17 05:13:07;;;;;;;0.75;0.65;;;;;;;10.92;59.79;98619.09;5324325;26;20074;-87
2023/11/17 05:15:33;;;;;;;0.30;0.30;;;;;;;10.86;59.78;98621.97;5306249;26;20057;-87
2023/11/17 05:17:59;;;;;;;0.37;0.37;;;;;;;10.80;59.77;98627.50;5324810;26;20103;-88
2023/11/17 05:20:24;;;;;;;0.52;0.52;;;;;;;10.92;59.77;98621.69;5324835;26;20052;-86
2023/11/17 05:22:54;;;;;;;0.30;0.28;;;;;;;10.94;59.79;98622.44;5324759;26;20053;-87
2023/11/17 05:25:20;;;;;;;0.37;0.37;;;;;;;10.91;59.78;98612.19;5306958;26;20052;-87
2023/11/17 05:27:46;;;;;;;1.15;1.02;;;;;;;10.92;59.79;98619.09;5306558;26;20056;-87
2023/11/17 05:30:12;;;;;;;0.13;0.08;;;;;;;10.86;59.78;98629.78;5344665;26;20057;-89
2023/11/17 05:32:38;;;;;;;0.57;0.57;;;;;;;10.91;59.78;98626.06;5325211;26;20061;-88
2023/11/17 05:35:07;;;;;;;0.10;0.10;;;;;;;10.80;59.78;98630.09;5324130;26;20066;-88
2023/11/17 05:37:33;;;;;;;3.33;1.40;;;;;;;10.79;59.78;98637.06;5307203;26;20102;-88
2023/11/17 05:39:58;;;;;;;0.00;0.00;;;;;;;10.77;59.78;98631.94;5306208;26;20408;-88
2023/11/17 05:42:23;;;;;;;0.30;0.30;;;;;;;10.82;59.78;98639.53;5305431;26;33316;-88
2023/11/17 05:44:49;;;;;;;3.15;1.27;;;;;;;10.86;59.78;98640.22;5324109;26;21826;-88
2023/11/17 05:47:15;;;;;;;0.35;0.35;;;;;;;10.90;59.78;98640.00;5325239;26;20036;-88
2023/11/17 05:49:43;;;;;;;0.00;0.00;;;;;;;10.99;59.79;98638.66;5306531;26;20117;-88
2023/11/17 05:52:13;;;;;;;0.20;0.10;;;;;;;10.96;59.78;98638.84;5306694;26;20068;-88
2023/11/17 05:54:45;;;;;;;0.13;0.13;;;;;;;11.09;59.80;98645.06;5306707;26;20052;-89
2023/11/17 05:57:12;;;;;;;0.00;0.00;;;;;;;11.15;59.79;98641.34;5325633;26;20049;-87
2023/11/17 05:59:38;;;;;;;0.37;0.37;;;;;;;10.97;59.78;98640.50;5324581;26;20075;-88
2023/11/17 06:02:04;;;;;;;0.75;0.45;;;;;;;11.05;59.79;98640.94;5305782;26;20057;-88
2023/11/17 06:04:30;;;;;;;0.00;0.00;;;;;;;10.99;59.79;98641.28;5323957;26;20059;-88
2023/11/17 06:06:56;;;;;;;0.10;0.10;;;;;;;11.05;59.79;98646.16;5344142;26;20048;-88
2023/11/17 06:09:21;;;;;;;0.10;0.05;;;;;;;11.15;59.79;98649.16;5324367;26;20175;-88
2023/11/17 06:11:48;;;;;;;0.10;0.10;;;;;;;11.14;59.80;98639.66;5324895;26;20091;-88
2023/11/17 06:14:13;;;;;;;0.00;0.00;;;;;;;11.13;59.79;98645.78;5306597;26;20052;-88
2023/11/17 06:16:39;;;;;;;1.45;1.35;;;;;;;11.18;59.80;98635.97;5344715;26;20055;-88
2023/11/17 06:19:04;;;;;;;0.20;0.20;;;;;;;11.33;59.81;98632.53;5324114;26;31464;-88
2023/11/17 06:21:32;;;;;;;0.57;0.20;;;;;;;11.34;59.81;98636.81;5323865;26;28952;-88
2023/11/17 06:23:57;;;;;;;0.43;0.40;;;;;;;11.33;59.81;98643.78;5306444;26;20056;-87
2023/11/17 06:26:23;;;;;;;0.80;0.80;;;;;;;11.42;59.81;98644.25;5344916;26;20040;-87
2023/11/17 06:28:48;;;;;;;0.60;0.60;;;;;;;11.53;59.82;98654.94;5324574;26;20095;-87
2023/11/17 06:31:14;;;;;;;4.18;0.62;;;;;;;11.45;59.81;98642.31;5306314;26;20072;-88
2023/11/17 06:33:40;;;;;;;3.55;1.67;;;;;;;11.53;59.82;98647.97;5324941;26;20056;-88
2023/11/17 06:36:08;;;;;;;0.55;0.55;;;;;;;11.50;59.81;98644.69;5287332;26;20666;-88
2023/11/17 06:38:34;;;;;;;2.60;1.20;;;;;;;11.34;59.81;98650.69;5306681;26;20981;-88
2023/11/17 06:41:00;;;;;;;0.00;0.00;;;;;;;11.51;59.81;98647.19;5305863;26;20057;-88
2023/11/17 06:43:28;;;;;;;0.10;0.05;;;;;;;11.57;59.82;98651.25;5306073;26;20454;-89
2023/11/17 06:45:54;;;;;;;0.40;0.40;;;;;;;11.55;59.82;98638.28;5306256;26;20066;-88
2023/11/17 06:48:20;;;;;;;0.90;0.65;;;;;;;11.56;59.82;98650.41;5324712;26;20048;-87
2023/11/17 06:50:48;;;;;;;3.30;0.80;;;;;;;11.47;59.81;98650.06;5324657;26;20412;-88
2023/11/17 06:53:14;;;;;;;2.72;0.45;;;;;;;11.44;59.81;98652.84;5325189;26;20068;-88
2023/11/17 06:55:39;;;;;;;0.90;0.90;;;;;;;11.52;59.81;98648.88;5306118;26;20063;-89
2023/11/17 06:58:05;;;;;;;0.30;0.30;;;;;;;11.53;59.82;98655.78;5305649;26;20078;-88
2023/11/17 07:00:32;;;;;;;0.13;0.13;;;;;;;11.55;59.81;98653.09;5323444;26;31029;-88
2023/11/17 07:02:59;;;;;;;1.48;1.37;;;;;;;11.62;59.82;98649.25;5324508;26;20052;-88
2023/11/17 07:05:24;;;;;;;0.20;0.20;;;;;;;11.58;59.81;98665.94;5305859;26;20052;-88
2023/11/17 07:07:53;;;;;;;0.40;0.40;;;;;;;11.64;59.82;98655.22;5323888;26;20098;-88
2023/11/17 07:10:19;;;;;;;0.00;0.00;;;;;;;11.47;59.82;98660.47;5324308;26;20071;-88
2023/11/17 07:12:45;;;;;;;0.77;0.77;;;;;;;11.73;59.83;98648.66;5323954;26;20049;-88
2023/11/17 07:15:11;;;;;;;0.00;0.00;;;;;;;11.63;59.82;98648.31;5324509;26;20283;-88
2023/11/17 07:17:38;;;;;;;0.20;0.20;;;;;;;11.81;59.82;98649.09;5323736;26;20447;-88
2023/11/17 07:20:09;;;;;;;0.10;0.10;;;;;;;11.72;59.83;98649.59;5305353;26;20059;-88
2023/11/17 07:22:35;;;;;;;1.00;0.55;;;;;;;11.91;59.84;98645.09;5305706;26;20052;-87
2023/11/17 07:25:01;;;;;;;0.35;0.20;;;;;;;11.90;59.84;98641.63;5322662;26;20450;-88
2023/11/17 07:27:32;;;;;;;0.10;0.10;;;;;;;11.88;59.83;98648.72;5322939;26;20071;-88
2023/11/17 07:29:57;;;;;;;2.20;2.00;;;;;;;12.03;59.84;98639.19;5322842;26;20206;-88
2023/11/17 07:32:23;;;;;;;0.22;0.22;;;;;;;12.22;59.86;98652.03;5321740;26;20345;-87
2023/11/17 07:34:49;;;;;;;0.90;0.70;;;;;;;12.21;59.86;98650.38;5323632;26;20079;-88
2023/11/17 07:37:15;;;;;;;0.47;0.47;;;;;;;12.36;59.87;98643.44;5323514;26;20056;-88
2023/11/17 07:39:40;;;;;;;0.37;0.37;;;;;;;12.47;59.87;98643.66;5305248;26;20056;-88
2023/11/17 07:42:06;;;;;;;0.62;0.62;;;;;;;12.60;59.87;98645.50;5305087;26;20563;-88
2023/11/17 07:44:32;;;;;;;0.15;0.15;;;;;;;12.90;59.89;98639.41;5304779;26;20092;-88
2023/11/17 07:46:59;;;;;;;0.10;0.10;;;;;;;12.96;59.90;98644.25;5304871;26;20386;-88
2023/11/17 07:49:25;;;;;;;1.58;0.73;;;;;;;12.93;59.89;98652.28;5305549;26;20065;-88
2023/11/17 07:51:53;;;;;;;2.37;1.15;;;;;;;13.13;59.90;98649.31;5323478;26;20068;-88
2023/11/17 07:54:19;;;;;;;7.25;0.73;;;;;;;13.21;59.90;98652.34;5305385;26;20067;-88
2023/11/17 07:56:46;;;;;;;0.03;0.03;;;;;;;13.30;59.91;98655.34;5323121;26;20674;-88
2023/11/17 07:59:12;;;;;;;0.00;0.00;;;;;;;13.26;59.90;98656.47;5323411;26;20378;-88
2023/11/17 08:01:38;;;;;;;0.10;0.10;;;;;;;13.22;59.90;98658.41;5304584;26;20380;-88
2023/11/17 08:04:05;;;;;;;1.42;0.50;;;;;;;13.06;59.90;98668.09;5304698;26;20060;-88
2023/11/17 08:06:31;;;;;;;0.20;0.20;;;;;;;13.13;59.90;98665.00;5323055;26;20082;-88
2023/11/17 08:08:56;;;;;;;0.20;0.20;;;;;;;13.07;59.90;98665.38;5304368;26;20398;-88
2023/11/17 08:11:22;;;;;;;0.10;0.10;;;;;;;12.96;59.88;98662.53;5303787;26;26211;-88
2023/11/17 08:13:48;;;;;;;0.45;0.45;;;;;;;12.92;59.89;98661.03;5304243;26;20535;-88
2023/11/17 08:16:14;;;;;;;0.57;0.57;;;;;;;12.92;59.89;98658.44;5304373;26;20061;-88
2023/11/17 08:18:39;;;;;;;0.40;0.40;;;;;;;12.77;59.88;98661.94;5322938;26;20472;-88
2023/11/17 08:21:06;;;;;;;1.30;0.40;;;;;;;12.64;59.87;98660.97;5322447;26;20065;-88
2023/11/17 08:23:31;;;;;;;0.08;0.08;;;;;;;12.57;59.86;98663.09;5323495;26;20060;-88
2023/11/17 08:25:57;;;;;;;0.00;0.00;;;;;;;12.58;59.88;98667.41;5303940;26;28831;-86
2023/11/17 08:28:23;;;;;;;0.25;0.25;;;;;;;12.42;59.86;98667.41;5304866;26;20126;-87
2023/11/17 08:30:49;;;;;;;0.45;0.45;;;;;;;12.31;59.86;98672.41;5322054;26;34705;-88
2023/11/17 08:33:14;;;;;;;0.10;0.10;;;;;;;12.27;59.85;98673.50;5304653;26;20052;-88
2023/11/17 08:35:40;;;;;;;0.20;0.10;;;;;;;12.23;59.85;98690.25;5304405;26;21483;-88
2023/11/17 08:38:06;;;;;;;0.50;0.22;;;;;;;12.24;59.86;98695.38;5323476;26;20060;-87
2023/11/17 08:40:32;;;;;;;1.90;1.05;;;;;;;12.27;59.85;98686.53;5322918;26;20078;-88
2023/11/17 08:42:57;;;;;;;2.00;1.75;;;;;;;12.18;59.85;98694.88;5304167;26;20409;-88
2023/11/17 08:45:23;;;;;;;0.10;0.10;;;;;;;12.18;59.85;98700.09;5305576;26;20091;-88
2023/11/17 08:47:51;;;;;;;0.52;0.52;;;;;;;12.19;59.84;98710.44;5323130;26;29738;-88
2023/11/17 08:50:16;;;;;;;0.47;0.47;;;;;;;12.09;59.84;98714.50;5306330;26;20066;-87
2023/11/17 08:52:45;;;;;;;4.40;0.35;;;;;;;12.29;59.86;98718.59;5305823;26;20379;-89
2023/11/17 08:55:14;;;;;;;0.40;0.40;;;;;;;12.48;59.87;98721.88;5306503;26;20060;-88
2023/11/17 08:57:44;;;;;;;0.00;0.00;;;;;;;12.69;59.88;98719.00;5324921;26;20060;-88
2023/11/17 09:00:14;;;;;;;1.17;1.12;;;;;;;12.49;59.86;98720.09;5287472;26;20049;-88
2023/11/17 09:02:48;;;;;;;2.75;1.55;;;;;;;12.40;59.86;98723.25;5307013;26;20115;-88
2023/11/17 09:05:14;;;;;;;1.25;0.55;;;;;;;12.54;59.87;98726.78;5306093;26;20166;-89
2023/11/17 09:07:41;;;;;;;0.00;0.00;;;;;;;12.49;59.87;98739.22;5305602;26;20052;-89
2023/11/17 09:10:11;;;;;;;0.47;0.45;;;;;;;12.59;59.87;98748.25;5305463;26;20052;-88
2023/11/17 09:12:36;;;;;;;0.30;0.30;;;;;;;12.58;59.88;98749.16;5287613;26;20053;-88
2023/11/17 09:15:08;;;;;;;0.57;0.57;;;;;;;12.18;59.85;98754.88;5323532;26;20096;-87
2023/11/17 09:17:34;;;;;;;0.98;0.80;;;;;;;12.19;59.85;98754.81;5306852;26;20074;-88
2023/11/17 09:20:01;;;;;;;1.48;1.35;;;;;;;12.19;59.84;98756.56;5324359;26;20071;-88
2023/11/17 09:22:26;;;;;;;0.73;0.73;;;;;;;12.04;59.84;98757.38;5323980;26;20059;-88
2023/11/17 09:24:52;;;;;;;0.82;0.60;;;;;;;11.83;59.83;98754.16;5305315;26;20112;-88
2023/11/17 09:27:17;;;;;;;0.85;0.85;;;;;;;11.45;59.80;98762.19;5304840;26;25181;-88
2023/11/17 09:29:42;;;;;;;0.10;0.10;;;;;;;11.41;59.81;98771.09;5305689;26;20063;-89
2023/11/17 09:32:08;;;;;;;0.75;0.75;;;;;;;11.44;59.81;98777.91;5306131;26;20072;-88
2023/11/17 09:34:33;;;;;;;0.22;0.22;;;;;;;11.48;59.82;98771.63;5304321;26;32922;-88
2023/11/17 09:36:59;;;;;;;0.85;0.85;;;;;;;11.41;59.81;98765.87;5305249;26;20405;-89
2023/11/17 09:39:25;;;;;;;1.87;0.55;;;;;;;11.45;59.81;98772.63;5305559;26;20358;-88
2023/11/17 09:41:50;;;;;;;0.00;0.00;;;;;;;11.48;59.81;98767.25;5324255;26;20114;-88
2023/11/17 09:44:15;;;;;;;0.52;0.52;;;;;;;11.58;59.81;98772.81;5305990;26;20126;-88
2023/11/17 09:46:45;;;;;;;0.30;0.25;;;;;;;11.43;59.80;98771.84;5304705;26;31480;-87
2023/11/17 09:49:11;;;;;;;1.98;1.48;;;;;;;11.26;59.80;98780.50;5288133;26;20048;-88
2023/11/17 09:51:37;;;;;;;0.37;0.37;;;;;;;11.10;59.80;98773.53;5324255;26;20431;-88
2023/11/17 09:54:03;;;;;;;0.77;0.77;;;;;;;11.12;59.79;98779.50;5305665;26;20076;-88
2023/11/17 09:56:29;;;;;;;0.62;0.62;;;;;;;11.18;59.79;98774.84;5323552;26;20108;-88
2023/11/17 09:58:55;;;;;;;0.00;0.00;;;;;;;11.34;59.81;98767.09;5305525;26;20075;-88
2023/11/17 10:01:21;;;;;;;0.30;0.30;;;;;;;11.37;59.80;98764.34;5305934;26;20045;-87
2023/11/17 10:03:48;;;;;;;0.00;0.00;;;;;;;11.38;59.81;98772.09;5324320;26;20053;-87
2023/11/17 10:06:14;;;;;;;1.60;1.00;;;;;;;11.30;59.81;98758.59;5306189;26;20488;-87
2023/11/17 10:08:41;;;;;;;0.60;0.57;;;;;;;11.17;59.79;98767.97;5306066;26;20056;-87
2023/11/17 10:11:06;;;;;;;0.00;0.00;;;;;;;11.16;59.79;98774.09;5305034;26;20064;-88
2023/11/17 10:13:32;;;;;;;0.75;0.75;;;;;;;11.28;59.80;98770.84;5305007;26;20453;-87
2023/11/17 10:15:58;;;;;;;0.25;0.25;;;;;;;11.44;59.80;98780.50;5304927;26;20500;-88
2023/11/17 10:18:29;;;;;;;0.00;0.00;;;;;;;11.43;59.80;98771.00;5323602;26;20063;-87
2023/11/17 10:20:57;;;;;;;1.27;0.47;;;;;;;11.52;59.81;98773.13;5305555;26;20166;-88
2023/11/17 10:23:23;;;;;;;0.25;0.25;;;;;;;11.69;59.82;98763.53;5324194;26;20061;-88
2023/11/17 10:25:54;;;;;;;0.00;0.00;;;;;;;11.85;59.84;98765.38;5305116;26;20686;-87
2023/11/17 10:28:19;;;;;;;1.65;0.73;;;;;;;11.81;59.83;98763.81;5306489;26;20447;-88
2023/11/17 10:30:45;;;;;;;0.35;0.35;;;;;;;11.88;59.83;98762.59;5305211;26;20044;-88
2023/11/17 10:33:14;;;;;;;0.85;0.75;;;;;;;12.00;59.84;98754.09;5324274;26;20064;-88
2023/11/17 10:35:43;;;;;;;0.10;0.10;;;;;;;11.82;59.83;98758.53;5343907;26;20074;-88
2023/11/17 10:38:14;;;;;;;0.43;0.43;;;;;;;12.11;59.85;98756.16;5306311;26;20066;-89
2023/11/17 10:40:41;;;;;;;0.57;0.57;;;;;;;12.17;59.85;98756.66;5287004;26;20493;-88
2023/11/17 10:43:11;;;;;;;0.10;0.10;;;;;;;12.24;59.86;98752.78;5306046;26;20091;-88
2023/11/17 10:45:47;;;;;;;;;;;;;;;12.28;59.85;98756.06;5306055;26;20071;-88
2023/11/17 10:48:13;;;;;;;0.13;0.13;;;;;;;12.28;59.85;98756.06;5325376;26;19998;-88
2023/11/17 10:50:41;;;;;;;0.00;0.00;;;;;;;12.04;59.84;98760.84;5305447;26;20056;-87
2023/11/17 10:53:20;;;;;;;0.10;0.10;;;;;;;11.72;59.83;98765.13;5287934;26;20163;-88
2023/11/17 10:55:49;;;;;;;0.10;0.10;;;;;;;11.75;59.82;98756.31;5305326;26;20065;-87
2023/11/17 10:58:18;;;;;;;0.47;0.47;;;;;;;11.48;59.81;98748.16;5323674;26;20444;-88
2023/11/17 11:00:47;;;;;;;0.35;0.05;;;;;;;11.57;59.81;98751.13;5324514;26;20117;-88
2023/11/17 11:03:13;;;;;;;0.15;0.15;;;;;;;11.53;59.82;98761.78;5305529;26;20369;-88
2023/11/17 11:05:42;;;;;;;0.00;0.00;;;;;;;11.61;59.82;98754.44;5305575;26;20112;-87
2023/11/17 11:08:18;;;;;;;0.00;0.00;;;;;;;11.29;59.79;98767.31;5305689;26;20060;-87
2023/11/17 11:10:54;;;;;;;0.00;0.00;;;;;;;11.43;59.80;98763.19;5305058;26;20056;-87
2023/11/17 11:13:29;;;;;;;1.20;0.45;;;;;;;11.52;59.81;98768.75;5304956;26;20059;-88
2023/11/17 11:15:59;;;;;;;0.00;0.00;;;;;;;11.63;59.82;98776.88;5304800;26;20492;-87
2023/11/17 11:18:24;;;;;;;0.00;0.00;;;;;;;11.36;59.80;98771.31;5305043;26;20061;-87
2023/11/17 11:20:49;;;;;;;0.00;0.00;;;;;;;11.32;59.80;98782.81;5322192;26;33313;-87
2023/11/17 11:23:15;;;;;;;0.00;0.00;;;;;;;11.02;59.79;98776.53;5303942;26;29823;-87
2023/11/17 11:25:41;;;;;;;0.10;0.10;;;;;;;10.81;59.77;98801.00;5323268;26;20099;-88
2023/11/17 11:28:08;;;;;;;0.00;0.00;;;;;;;10.73;59.77;98799.59;5304833;26;20048;-87
2023/11/17 11:30:33;;;;;;;0.00;0.00;;;;;;;10.75;59.77;98792.56;5323689;26;20047;-88
2023/11/17 11:32:59;;;;;;;0.00;0.00;;;;;;;10.63;59.77;98798.34;5305193;26;20531;-87